Beach Haven, New Jersey
Current Conditions -  °F | °C
As of 10:54 PM on Saturday 22 Nov 2014 (Local Time) from KACY Reporting Station
Overcast Overcast  
Wind Chill: 35°   Ceiling: 12000
Heat Index: 41°   Visibility: 10mi
Dew Point: 27°   Wind: 10mph
Humidity: 57%   Direction: 220°SW
Pressure: 30.28"   Gusts: NA
Location:  39.56°N, 74.24°W
Report Text: KACY 230354Z 22009KT 10SM OVC120 05/M03 A3028 RMK AO2 SLP254 T00501028
Loading
Personal Weather Stations






























Interactive Weather Map New forecast layout! Learn more

10-Day Weather Forecast

Advertisements
Track Severe Weather on mobile